Time;durP1;ratioP1;P1;durP2;ratioP2;P2;SDS_P1;SDS_P2;PMS_P1;PMS_P2;Temp;Humidity;BMP_temperature;BMP_pressure;BME280_temperature;BME280_humidity;BME280_pressure;Samples;Min_cycle;Max_cycle;Signal;HPM_P1;HPM_P2
2024/01/26 00:02:20;;;;;;;4.30;2.20;;;;;;;7.50;54.73;99915.34;4952276;29;20475;-26
2024/01/26 00:04:45;;;;;;;7.13;2.35;;;;;;;7.20;55.27;99914.44;4952403;29;20039;-27
2024/01/26 00:07:11;;;;;;;5.43;2.28;;;;;;;7.44;55.28;99932.75;4952260;29;20027;-26
2024/01/26 00:09:36;;;;;;;8.80;2.72;;;;;;;7.33;54.99;99932.34;4951986;29;20066;-27
2024/01/26 00:12:02;;;;;;;8.93;2.40;;;;;;;7.39;54.83;99934.31;4951994;29;20034;-25
2024/01/26 00:14:27;;;;;;;4.13;2.30;;;;;;;7.36;54.93;99932.81;4951538;29;20437;-25
2024/01/26 00:16:53;;;;;;;8.43;2.50;;;;;;;7.28;54.75;99918.84;4951948;29;20039;-25
2024/01/26 00:19:18;;;;;;;7.70;2.25;;;;;;;7.09;55.26;99918.31;4952076;29;20114;-26
2024/01/26 00:21:43;;;;;;;7.50;2.40;;;;;;;7.11;54.58;99921.59;4952169;29;20030;-26
2024/01/26 00:24:09;;;;;;;9.02;2.00;;;;;;;7.12;54.93;99925.06;4951776;29;20031;-25
2024/01/26 00:26:34;;;;;;;6.22;2.17;;;;;;;7.14;53.86;99925.69;4954568;28;20027;-26
2024/01/26 00:29:00;;;;;;;7.90;2.25;;;;;;;7.30;53.77;99920.28;4956223;29;20027;-26
2024/01/26 00:31:26;;;;;;;5.38;1.92;;;;;;;7.36;53.70;99922.22;4955275;29;20110;-27
2024/01/26 00:33:52;;;;;;;8.27;2.33;;;;;;;7.68;52.56;99930.88;4955897;29;20094;-26
2024/01/26 00:36:17;;;;;;;6.72;2.40;;;;;;;7.39;52.92;99936.94;4955754;29;20475;-26
2024/01/26 00:38:43;;;;;;;4.90;2.10;;;;;;;7.40;52.84;99944.69;4949948;29;20134;-25
2024/01/26 00:41:10;;;;;;;5.32;2.30;;;;;;;7.58;52.54;99936.44;4946891;29;20020;-36
2024/01/26 00:43:35;;;;;;;4.78;1.95;;;;;;;7.47;52.70;99936.06;4955313;29;20158;-39
2024/01/26 00:46:00;;;;;;;6.63;2.10;;;;;;;7.32;52.60;99939.47;4945273;29;20110;-37
2024/01/26 00:48:26;;;;;;;5.43;2.00;;;;;;;7.44;52.59;99927.47;4936859;29;20027;-39
2024/01/26 00:50:51;;;;;;;6.88;2.30;;;;;;;7.56;52.16;99930.50;4936611;29;20111;-39
2024/01/26 00:53:17;;;;;;;5.18;2.50;;;;;;;7.49;52.58;99937.50;4949857;29;20046;-37
2024/01/26 00:55:43;;;;;;;7.68;2.30;;;;;;;7.51;52.03;99927.56;4955806;29;20118;-37
2024/01/26 00:58:09;;;;;;;5.15;1.73;;;;;;;7.37;52.55;99931.81;4955885;29;20113;-40
2024/01/26 01:00:34;;;;;;;6.57;2.10;;;;;;;7.46;52.22;99940.50;4955746;29;20027;-36
2024/01/26 01:02:59;;;;;;;7.32;2.17;;;;;;;7.40;52.24;99928.00;4955585;29;20381;-39
2024/01/26 01:05:25;;;;;;;7.10;2.30;;;;;;;7.53;52.00;99924.75;4955230;29;20035;-39
2024/01/26 01:07:50;;;;;;;4.43;1.85;;;;;;;7.29;52.68;99929.25;4955677;29;20031;-26
2024/01/26 01:10:16;;;;;;;6.07;2.15;;;;;;;7.16;53.12;99932.47;4955436;29;20472;-26
2024/01/26 01:12:42;;;;;;;3.33;1.90;;;;;;;7.27;52.49;99931.22;4955594;29;20030;-26
2024/01/26 01:15:11;;;;;;;8.90;2.08;;;;;;;7.35;52.46;99928.53;4955575;29;20063;-26
2024/01/26 01:17:41;;;;;;;8.00;2.20;;;;;;;7.13;52.98;99927.53;4955849;29;20082;-26
2024/01/26 01:20:11;;;;;;;7.90;2.45;;;;;;;7.19;53.34;99926.00;4955544;29;20027;-26
2024/01/26 01:22:37;;;;;;;5.55;2.25;;;;;;;7.14;53.19;99923.91;4955268;29;20042;-26
2024/01/26 01:25:04;;;;;;;5.63;2.30;;;;;;;7.14;53.46;99920.41;4955294;29;20468;-27
2024/01/26 01:27:31;;;;;;;5.38;2.05;;;;;;;6.88;54.51;99910.19;4955524;29;20028;-26
2024/01/26 01:29:57;;;;;;;7.55;2.30;;;;;;;7.16;53.66;99919.25;4955476;29;20107;-27
2024/01/26 01:32:22;;;;;;;4.72;1.90;;;;;;;7.08;53.27;99910.53;4954713;29;20142;-27
2024/01/26 01:34:47;;;;;;;7.90;2.30;;;;;;;7.03;53.59;99921.66;4955192;29;20033;-26
2024/01/26 01:37:13;;;;;;;6.85;2.03;;;;;;;7.27;52.98;99909.22;4954764;28;20076;-27
2024/01/26 01:39:39;;;;;;;6.35;2.30;;;;;;;7.13;53.55;99922.22;4955386;29;20031;-26
2024/01/26 01:42:04;;;;;;;7.60;2.47;;;;;;;7.19;53.38;99929.47;4955166;29;20031;-27
2024/01/26 01:44:30;;;;;;;5.18;2.05;;;;;;;6.94;54.34;99926.16;4955019;29;20039;-27
2024/01/26 01:46:56;;;;;;;6.00;1.98;;;;;;;6.87;55.05;99927.84;4937568;29;20030;-25
2024/01/26 01:49:22;;;;;;;5.60;2.00;;;;;;;7.10;54.13;99919.13;4954904;29;20046;-27
2024/01/26 01:51:50;;;;;;;7.35;2.45;;;;;;;6.99;54.54;99923.00;4954478;29;20551;-27
2024/01/26 01:54:18;;;;;;;6.72;2.30;;;;;;;6.88;54.70;99923.41;4954886;29;20038;-26
2024/01/26 01:56:43;;;;;;;5.82;2.22;;;;;;;6.65;55.94;99929.50;4954969;29;20031;-26
2024/01/26 01:59:09;;;;;;;7.45;1.98;;;;;;;6.67;54.90;99935.44;4954847;29;20439;-26
2024/01/26 02:01:35;;;;;;;4.60;2.28;;;;;;;6.74;55.29;99938.19;4954879;29;20392;-26
2024/01/26 02:04:02;;;;;;;5.93;2.30;;;;;;;7.11;54.06;99944.59;4954832;29;20424;-27
2024/01/26 02:06:28;;;;;;;6.70;2.50;;;;;;;6.91;55.04;99945.06;4954541;29;20023;-26
2024/01/26 02:08:54;;;;;;;4.20;2.28;;;;;;;6.92;54.64;99946.69;4954701;29;20118;-27
2024/01/26 02:11:19;;;;;;;6.63;2.17;;;;;;;6.91;54.39;99947.69;4954516;29;21966;-27
2024/01/26 02:13:44;;;;;;;4.18;2.25;;;;;;;7.02;53.54;99939.34;4954529;29;20114;-25
2024/01/26 02:16:10;;;;;;;6.63;2.28;;;;;;;7.00;53.89;99943.97;4954451;29;20270;-27
2024/01/26 02:18:36;;;;;;;8.65;2.58;;;;;;;7.15;53.76;99941.41;4953797;29;20561;-36
2024/01/26 02:21:02;;;;;;;4.70;2.17;;;;;;;6.76;54.74;99944.13;4954018;29;20039;-36
2024/01/26 02:23:27;;;;;;;5.10;2.33;;;;;;;6.88;53.99;99926.06;4941971;29;20034;-39
2024/01/26 02:25:53;;;;;;;6.85;2.30;;;;;;;7.01;54.17;99943.00;4934245;29;20035;-36
2024/01/26 02:28:18;;;;;;;5.47;2.33;;;;;;;6.94;54.34;99939.41;4934366;29;20114;-37
2024/01/26 02:30:44;;;;;;;9.05;2.67;;;;;;;6.87;54.55;99943.72;4934308;29;20046;-35
2024/01/26 02:33:09;;;;;;;9.45;2.30;;;;;;;7.15;53.73;99943.25;4934143;29;20059;-39
2024/01/26 02:35:35;;;;;;;4.40;1.95;;;;;;;7.13;53.61;99953.19;4934480;29;20096;-40
2024/01/26 02:38:00;;;;;;;6.45;2.40;;;;;;;6.99;53.88;99952.94;4934293;29;20082;-39
2024/01/26 02:40:25;;;;;;;6.22;2.55;;;;;;;7.17;53.11;99951.81;4941369;29;20034;-37
2024/01/26 02:42:51;;;;;;;11.27;2.70;;;;;;;7.32;52.90;99957.19;4951323;29;20063;-38
2024/01/26 02:45:16;;;;;;;8.55;2.47;;;;;;;7.31;53.31;99952.88;4934603;29;20106;-39
2024/01/26 02:47:41;;;;;;;5.53;2.50;;;;;;;7.28;52.56;99947.94;4945081;28;20490;-37
2024/01/26 02:50:08;;;;;;;9.23;3.05;;;;;;;7.10;53.67;99959.66;4952908;29;20069;-38
2024/01/26 02:52:33;;;;;;;7.82;2.38;;;;;;;7.32;53.06;99973.88;4953200;29;20456;-38
2024/01/26 02:54:58;;;;;;;8.18;2.53;;;;;;;7.47;52.99;99979.25;4953783;29;20094;-38
2024/01/26 02:57:24;;;;;;;5.32;2.55;;;;;;;7.63;52.22;99975.63;4953279;29;20396;-40
2024/01/26 02:59:49;;;;;;;6.82;2.67;;;;;;;7.33;52.58;99987.94;4953155;29;20459;-38
2024/01/26 03:02:15;;;;;;;7.22;2.50;;;;;;;7.28;53.40;99985.84;4953330;29;20423;-38
2024/01/26 03:04:40;;;;;;;6.78;2.45;;;;;;;7.47;52.68;99989.84;4952787;29;20050;-38
2024/01/26 03:07:05;;;;;;;11.63;2.60;;;;;;;7.44;52.71;99983.06;4952992;29;20027;-40
2024/01/26 03:09:31;;;;;;;7.13;2.60;;;;;;;7.45;52.77;99991.84;4953043;29;20392;-39
2024/01/26 03:11:56;;;;;;;4.38;2.33;;;;;;;7.49;53.23;100000.25;4953460;29;20087;-37
2024/01/26 03:14:22;;;;;;;9.50;2.97;;;;;;;7.75;51.95;100003.34;4953524;29;20476;-37
2024/01/26 03:16:47;;;;;;;8.07;2.75;;;;;;;7.64;52.67;100012.53;4953294;29;20035;-37
2024/01/26 03:19:12;;;;;;;6.28;2.25;;;;;;;7.43;52.60;100007.06;4952885;29;20038;-39
2024/01/26 03:21:44;;;;;;;6.65;2.40;;;;;;;7.65;52.48;100018.66;4953095;29;20086;-36
2024/01/26 03:24:10;;;;;;;7.78;2.60;;;;;;;7.51;52.67;100017.59;4953159;29;20046;-36
2024/01/26 03:26:37;;;;;;;5.68;2.40;;;;;;;7.53;52.62;100018.25;4952923;29;20492;-37
2024/01/26 03:29:03;;;;;;;6.68;2.65;;;;;;;7.80;52.21;100016.06;4953011;29;20078;-39
2024/01/26 03:31:29;;;;;;;6.82;2.50;;;;;;;7.74;52.14;100022.88;4952661;29;20035;-26
2024/01/26 03:33:54;;;;;;;6.13;2.63;;;;;;;7.61;52.98;100012.88;4952841;29;20043;-26
2024/01/26 03:36:19;;;;;;;7.40;2.75;;;;;;;7.49;52.76;100016.16;4953279;29;20440;-26
2024/01/26 03:38:45;;;;;;;6.80;2.28;;;;;;;7.22;53.63;100015.66;4952719;29;20042;-26
2024/01/26 03:41:10;;;;;;;8.30;2.45;;;;;;;7.35;52.77;100012.41;4953163;29;20039;-25
2024/01/26 03:43:36;;;;;;;5.88;2.55;;;;;;;7.17;53.98;100021.47;4952844;29;20133;-25
2024/01/26 03:46:06;;;;;;;4.30;2.10;;;;;;;7.24;53.73;100017.13;4952909;29;20046;-26
2024/01/26 03:48:31;;;;;;;;;;;;;;;7.39;53.12;100019.03;4953051;29;20475;-26
2024/01/26 03:50:57;;;;;;;7.00;2.17;;;;;;;7.18;54.02;100028.41;4952914;29;19993;-26
2024/01/26 03:53:22;;;;;;;8.88;2.28;;;;;;;7.37;52.90;100023.69;4952543;29;20027;-25
2024/01/26 03:55:48;;;;;;;3.75;1.92;;;;;;;6.93;54.08;100013.66;4952609;29;20035;-26
2024/01/26 03:58:14;;;;;;;7.55;2.17;;;;;;;7.22;53.77;100029.72;4952410;29;20110;-26
2024/01/26 04:00:39;;;;;;;7.55;2.33;;;;;;;7.49;53.14;100024.09;4951030;29;20031;-26
2024/01/26 04:03:05;;;;;;;5.57;2.30;;;;;;;7.21;53.55;100025.41;4952203;29;20034;-39
2024/01/26 04:05:30;;;;;;;5.60;2.30;;;;;;;7.37;53.63;100027.13;4952809;29;20031;-39
2024/01/26 04:07:55;;;;;;;7.50;2.70;;;;;;;7.31;53.58;100022.56;4953412;29;20039;-28
2024/01/26 04:10:21;;;;;;;9.95;2.70;;;;;;;7.22;53.90;100023.59;4954095;29;20031;-41
2024/01/26 04:12:46;;;;;;;7.20;2.47;;;;;;;7.46;53.07;100016.47;4953212;29;20495;-40
2024/01/26 04:15:11;;;;;;;6.90;2.42;;;;;;;7.74;52.36;100017.59;4952898;29;20027;-39
2024/01/26 04:17:37;;;;;;;7.22;2.58;;;;;;;7.06;53.81;100021.84;4952643;29;20022;-27
2024/01/26 04:20:03;;;;;;;4.32;2.25;;;;;;;7.12;53.34;100015.88;4952239;29;20106;-27
2024/01/26 04:22:28;;;;;;;5.45;2.10;;;;;;;6.94;53.65;100016.13;4951740;29;20442;-26
2024/01/26 04:24:54;;;;;;;6.45;2.25;;;;;;;7.15;52.86;100015.50;4952272;29;20087;-27
2024/01/26 04:27:19;;;;;;;8.32;2.30;;;;;;;7.29;52.12;100013.13;4951711;29;20542;-26
2024/01/26 04:29:45;;;;;;;4.25;1.92;;;;;;;7.10;52.60;100004.66;4951207;29;20349;-26
2024/01/26 04:32:10;;;;;;;9.65;2.45;;;;;;;7.23;51.99;100006.69;4951529;29;20067;-27
2024/01/26 04:34:37;;;;;;;3.17;1.83;;;;;;;7.35;52.13;100010.59;4952066;29;20543;-27
2024/01/26 04:37:03;;;;;;;7.63;2.20;;;;;;;7.22;52.19;100008.53;4951819;29;20405;-27
2024/01/26 04:39:29;;;;;;;5.68;2.28;;;;;;;7.18;52.35;100012.53;4951665;29;20030;-27
2024/01/26 04:41:54;;;;;;;4.63;2.35;;;;;;;7.07;53.03;100010.28;4951867;29;20024;-25
2024/01/26 04:44:19;;;;;;;6.82;2.30;;;;;;;7.18;52.35;100009.06;4951660;29;20023;-27
2024/01/26 04:46:45;;;;;;;5.57;2.45;;;;;;;7.50;51.63;100001.88;4951313;29;20062;-25
2024/01/26 04:49:11;;;;;;;6.00;2.53;;;;;;;7.23;51.83;100015.50;4951482;29;20023;-25
2024/01/26 04:51:38;;;;;;;4.85;2.20;;;;;;;7.19;51.93;100011.53;4951696;29;20051;-26
2024/01/26 04:54:03;;;;;;;7.50;2.60;;;;;;;7.17;52.37;100010.06;4951732;29;20086;-25
2024/01/26 04:56:29;;;;;;;4.85;2.22;;;;;;;6.98;51.65;99996.25;4951772;29;20035;-26
2024/01/26 04:58:54;;;;;;;7.05;2.08;;;;;;;7.15;51.87;99996.16;4952555;29;20456;-26
2024/01/26 05:01:20;;;;;;;6.88;2.40;;;;;;;7.28;51.37;100016.78;4952513;29;20023;-26
2024/01/26 05:03:45;;;;;;;4.13;1.90;;;;;;;6.93;51.73;100018.94;4952185;29;20027;-27
2024/01/26 05:06:11;;;;;;;12.93;2.42;;;;;;;6.93;51.58;100003.91;4952364;29;20496;-26
2024/01/26 05:08:36;;;;;;;5.15;2.15;;;;;;;7.05;51.50;100012.28;4950695;29;20027;-27
2024/01/26 05:11:02;;;;;;;5.85;2.20;;;;;;;7.25;50.63;100007.34;4951455;28;20508;-26
2024/01/26 05:13:27;;;;;;;4.57;2.20;;;;;;;6.93;51.30;100006.56;4937450;29;20039;-25
2024/01/26 05:15:52;;;;;;;5.25;2.00;;;;;;;6.96;51.45;100000.91;4955089;29;20023;-25
2024/01/26 05:18:18;;;;;;;5.47;2.10;;;;;;;7.01;51.04;100005.69;4954956;29;20031;-26
2024/01/26 05:20:43;;;;;;;4.85;2.20;;;;;;;7.10;50.55;100001.16;4955070;29;20099;-26
2024/01/26 05:23:08;;;;;;;8.55;2.30;;;;;;;7.16;50.47;100000.44;4955854;29;20034;-27
2024/01/26 05:25:34;;;;;;;8.23;2.47;;;;;;;6.94;51.24;99999.44;4955902;29;20421;-27
2024/01/26 05:27:59;;;;;;;6.55;2.30;;;;;;;6.93;51.27;100011.84;4955826;29;20077;-27
2024/01/26 05:30:24;;;;;;;5.18;2.17;;;;;;;6.91;51.25;100010.34;4955176;29;20049;-27
2024/01/26 05:32:50;;;;;;;7.18;2.28;;;;;;;7.00;51.62;100018.06;4955232;29;20138;-27
2024/01/26 05:35:15;;;;;;;6.32;2.20;;;;;;;6.91;51.28;100010.34;4955117;29;20031;-27
2024/01/26 05:37:41;;;;;;;5.43;2.15;;;;;;;6.88;51.34;100023.94;4955742;29;20046;-26
2024/01/26 05:40:07;;;;;;;5.45;2.20;;;;;;;6.87;51.94;100031.03;4955377;29;20051;-26
2024/01/26 05:42:32;;;;;;;5.35;2.22;;;;;;;6.84;52.04;100036.69;4953996;29;20023;-27
2024/01/26 05:44:57;;;;;;;6.25;2.40;;;;;;;6.91;51.74;100034.16;4954821;29;20038;-26
2024/01/26 05:47:23;;;;;;;4.53;2.17;;;;;;;6.84;51.53;100044.63;4954628;29;20039;-26
2024/01/26 05:49:50;;;;;;;6.20;2.10;;;;;;;6.69;51.93;100038.41;4954298;29;20636;-28
2024/01/26 05:52:16;;;;;;;9.07;2.58;;;;;;;6.83;51.84;100042.97;4954502;29;20031;-26
2024/01/26 05:54:41;;;;;;;9.07;2.83;;;;;;;7.23;50.76;100054.34;4954270;29;20094;-26
2024/01/26 05:57:06;;;;;;;12.00;2.30;;;;;;;7.24;51.37;100048.06;4954392;29;20030;-27
2024/01/26 05:59:32;;;;;;;4.20;2.30;;;;;;;7.07;51.15;100049.16;4954714;29;20054;-26
2024/01/26 06:01:57;;;;;;;6.05;2.33;;;;;;;6.99;51.65;100052.66;4954321;29;20027;-24
2024/01/26 06:04:22;;;;;;;5.65;2.50;;;;;;;6.81;52.61;100045.78;4954754;29;20105;-25
2024/01/26 06:06:48;;;;;;;5.78;2.30;;;;;;;6.88;52.09;100048.56;4954334;29;20119;-26
2024/01/26 06:09:13;;;;;;;4.75;2.67;;;;;;;6.89;52.72;100047.56;4954704;29;20065;-27
2024/01/26 06:11:42;;;;;;;7.75;2.35;;;;;;;7.07;51.80;100042.03;4954691;29;20038;-28
2024/01/26 06:14:08;;;;;;;10.07;3.13;;;;;;;7.35;52.06;100055.63;4954597;29;20075;-27
2024/01/26 06:16:33;;;;;;;8.60;2.30;;;;;;;7.37;51.36;100058.91;4953979;29;20042;-27
2024/01/26 06:18:58;;;;;;;9.23;2.58;;;;;;;7.42;51.00;100064.53;4954478;29;20487;-27
2024/01/26 06:21:25;;;;;;;11.88;2.42;;;;;;;7.66;50.67;100068.00;4954473;29;20396;-27
2024/01/26 06:23:50;;;;;;;8.45;2.40;;;;;;;7.76;50.58;100079.16;4953407;28;20154;-27
2024/01/26 06:26:16;;;;;;;6.50;2.30;;;;;;;7.96;49.83;100074.22;4954191;29;20106;-26
2024/01/26 06:28:41;;;;;;;4.90;2.20;;;;;;;8.08;49.03;100071.16;4953917;29;20455;-27
2024/01/26 06:31:06;;;;;;;7.28;2.42;;;;;;;8.12;49.47;100083.03;4953805;29;20054;-27
2024/01/26 06:33:32;;;;;;;9.57;2.65;;;;;;;8.38;47.72;100066.72;4954038;29;20043;-27
2024/01/26 06:35:58;;;;;;;5.13;2.60;;;;;;;8.32;48.03;100070.09;4954242;29;20515;-27
2024/01/26 06:38:23;;;;;;;4.85;2.05;;;;;;;8.63;47.44;100074.47;4954149;29;20117;-27
2024/01/26 06:40:49;;;;;;;6.20;2.42;;;;;;;8.67;46.99;100079.22;4953935;29;20031;-28
2024/01/26 06:43:16;;;;;;;6.53;2.38;;;;;;;8.76;46.72;100075.47;4953946;29;20082;-27
2024/01/26 06:45:42;;;;;;;9.50;2.55;;;;;;;8.64;46.84;100089.38;4953880;29;20102;-27
2024/01/26 06:48:07;;;;;;;7.43;2.25;;;;;;;8.76;46.61;100077.31;4953595;29;20050;-27
2024/01/26 06:50:33;;;;;;;7.43;2.75;;;;;;;8.91;46.34;100086.09;4953595;29;20488;-27
2024/01/26 06:52:58;;;;;;;6.32;2.10;;;;;;;8.89;46.15;100074.81;4953624;29;20027;-27
2024/01/26 06:55:24;;;;;;;6.65;2.40;;;;;;;8.91;45.89;100074.63;4953630;29;20055;-27
2024/01/26 06:57:49;;;;;;;6.15;2.30;;;;;;;8.88;45.61;100091.75;4953723;29;20503;-27
2024/01/26 07:00:16;;;;;;;8.40;2.33;;;;;;;8.78;46.15;100072.63;4953493;29;20407;-28
2024/01/26 07:02:41;;;;;;;5.63;2.35;;;;;;;8.88;45.89;100085.63;4953534;29;20035;-26
2024/01/26 07:05:07;;;;;;;7.90;2.58;;;;;;;8.96;45.59;100077.56;4953524;29;20027;-26
2024/01/26 07:07:32;;;;;;;5.32;2.40;;;;;;;9.37;44.55;100072.53;4953105;29;20448;-27
2024/01/26 07:10:00;;;;;;;5.32;2.03;;;;;;;9.13;44.88;100068.38;4953378;29;20035;-26
2024/01/26 07:12:25;;;;;;;5.70;1.98;;;;;;;9.16;44.75;100072.50;4953270;29;20054;-27
2024/01/26 07:14:50;;;;;;;8.55;2.30;;;;;;;9.34;44.12;100064.94;4952874;29;20531;-28
2024/01/26 07:17:16;;;;;;;5.55;2.20;;;;;;;9.52;43.54;100075.16;4953443;29;20062;-29
2024/01/26 07:19:41;;;;;;;5.13;2.15;;;;;;;9.86;43.21;100071.00;4953627;29;20031;-27
2024/01/26 07:22:07;;;;;;;6.05;2.30;;;;;;;9.67;43.63;100077.75;4953199;29;20027;-26
2024/01/26 07:24:32;;;;;;;5.82;2.03;;;;;;;9.62;43.46;100084.66;4953206;29;20408;-28
2024/01/26 07:26:57;;;;;;;3.75;2.03;;;;;;;9.63;42.90;100089.75;4952656;29;20035;-28
2024/01/26 07:29:23;;;;;;;4.72;2.10;;;;;;;9.87;43.65;100099.19;4952377;29;20034;-29
2024/01/26 07:31:49;;;;;;;4.32;2.28;;;;;;;10.01;42.59;100084.19;4952727;29;20083;-28
2024/01/26 07:34:15;;;;;;;9.32;2.38;;;;;;;9.68;43.30;100087.38;4950279;29;20118;-28
2024/01/26 07:36:40;;;;;;;5.25;2.20;;;;;;;9.85;43.30;100082.63;4951826;29;20114;-27
2024/01/26 07:39:06;;;;;;;10.77;2.53;;;;;;;10.12;42.87;100089.00;4952797;29;20031;-27
2024/01/26 07:41:31;;;;;;;9.98;2.05;;;;;;;10.06;42.91;100089.75;4953128;29;20038;-27
2024/01/26 07:43:57;;;;;;;6.03;2.28;;;;;;;10.21;42.97;100094.19;4952506;29;20035;-28
2024/01/26 07:46:22;;;;;;;6.68;2.50;;;;;;;10.15;43.37;100096.59;4951597;29;20066;-29
2024/01/26 07:48:47;;;;;;;4.05;2.13;;;;;;;10.09;43.33;100086.72;4952821;29;20034;-28
2024/01/26 07:51:13;;;;;;;5.20;2.13;;;;;;;10.41;42.52;100089.84;4952325;29;20027;-27
2024/01/26 07:53:38;;;;;;;5.28;2.40;;;;;;;10.76;42.29;100081.91;4952126;29;20031;-28
2024/01/26 07:56:04;;;;;;;7.15;2.45;;;;;;;10.86;41.21;100086.88;4951660;29;20510;-28
2024/01/26 07:58:29;;;;;;;8.43;1.95;;;;;;;10.71;42.17;100076.34;4951461;29;20031;-27
2024/01/26 08:00:54;;;;;;;5.60;2.25;;;;;;;10.60;41.37;100071.56;4951721;29;20071;-27
2024/01/26 08:03:20;;;;;;;10.15;2.42;;;;;;;10.96;41.31;100074.00;4951877;29;20067;-27
2024/01/26 08:05:45;;;;;;;4.95;2.20;;;;;;;11.42;40.63;100067.22;4952280;29;20031;-29
2024/01/26 08:08:10;;;;;;;7.03;3.80;;;;;;;11.39;40.14;100079.09;4952043;29;20114;-28
2024/01/26 08:10:36;;;;;;;7.47;2.25;;;;;;;11.10;40.38;100073.06;4952724;29;20539;-27
2024/01/26 08:13:01;;;;;;;5.63;2.40;;;;;;;11.04;41.18;100073.84;4952190;29;20032;-27
2024/01/26 08:15:26;;;;;;;6.55;2.67;;;;;;;11.17;40.25;100067.75;4952348;29;20097;-27
2024/01/26 08:17:52;;;;;;;5.30;1.90;;;;;;;11.04;40.53;100081.00;4951920;29;20503;-27
2024/01/26 08:20:17;;;;;;;6.95;2.33;;;;;;;10.94;41.16;100078.72;4951917;29;20059;-27
2024/01/26 08:22:43;;;;;;;6.82;2.20;;;;;;;11.04;41.20;100076.53;4952225;29;20023;-27
2024/01/26 08:25:09;;;;;;;8.32;2.30;;;;;;;11.24;40.98;100071.25;4952232;29;20682;-28
2024/01/26 08:27:35;;;;;;;5.57;2.20;;;;;;;11.08;40.89;100069.78;4951809;29;20023;-26
2024/01/26 08:30:02;;;;;;;5.85;2.30;;;;;;;11.57;39.79;100086.50;4952357;29;20114;-27
2024/01/26 08:32:27;;;;;;;5.35;2.17;;;;;;;11.34;40.11;100071.69;4951852;29;20054;-28
2024/01/26 08:34:53;;;;;;;10.70;2.28;;;;;;;11.30;39.54;100058.97;4952182;29;20031;-28
2024/01/26 08:37:19;;;;;;;6.20;2.63;;;;;;;11.46;39.82;100076.44;4952189;29;20039;-29
2024/01/26 08:39:45;;;;;;;5.65;2.20;;;;;;;10.98;40.65;100053.31;4952555;29;20031;-30
2024/01/26 08:42:11;;;;;;;7.18;2.58;;;;;;;11.66;39.83;100076.50;4952513;29;20400;-27
2024/01/26 08:44:36;;;;;;;5.47;2.00;;;;;;;11.24;39.73;100091.75;4952150;29;20027;-29
2024/01/26 08:47:01;;;;;;;7.47;2.20;;;;;;;11.26;39.92;100069.22;4953267;28;20091;-27
2024/01/26 08:49:27;;;;;;;7.13;2.28;;;;;;;11.73;40.22;100077.34;4955415;29;20027;-28
2024/01/26 08:51:52;;;;;;;9.88;2.33;;;;;;;11.47;40.11;100088.75;4955647;29;20114;-29
2024/01/26 08:54:18;;;;;;;7.75;2.10;;;;;;;11.27;40.48;100081.53;4955430;29;20035;-30
2024/01/26 08:56:44;;;;;;;8.20;2.17;;;;;;;11.46;40.03;100085.28;4955621;29;20086;-28
2024/01/26 08:59:10;;;;;;;5.60;2.30;;;;;;;11.27;39.42;100086.00;4955551;29;20027;-28
2024/01/26 09:01:36;;;;;;;10.15;2.10;;;;;;;10.88;40.67;100106.94;4955527;29;20035;-28
2024/01/26 09:04:05;;;;;;;8.23;2.00;;;;;;;10.91;40.00;100114.53;4955682;29;20416;-29
2024/01/26 09:06:39;;;;;;;6.40;2.00;;;;;;;11.08;40.41;100098.22;4955699;29;20027;-29
2024/01/26 09:09:06;;;;;;;5.47;2.30;;;;;;;11.61;39.04;100095.75;4936922;29;20484;-27
2024/01/26 09:11:32;;;;;;;9.55;2.33;;;;;;;11.70;38.72;100091.88;4936165;29;20189;-31
2024/01/26 09:13:57;;;;;;;6.55;2.42;;;;;;;11.80;39.22;100091.47;4936208;29;20028;-29
2024/01/26 09:16:23;;;;;;;10.13;1.90;;;;;;;11.43;39.80;100095.50;4936049;29;20038;-28
2024/01/26 09:18:48;;;;;;;8.10;2.30;;;;;;;11.06;40.29;100079.81;4936117;29;20035;-28
2024/01/26 09:21:14;;;;;;;7.20;2.38;;;;;;;11.23;40.44;100088.28;4936081;29;20027;-28
2024/01/26 09:23:40;;;;;;;8.55;2.22;;;;;;;11.20;39.02;100090.50;4936107;29;20110;-27
2024/01/26 09:26:05;;;;;;;4.30;2.00;;;;;;;11.28;39.41;100077.81;4935858;29;20613;-27
2024/01/26 09:28:31;;;;;;;8.02;2.35;;;;;;;11.10;39.19;100056.22;4935647;29;20080;-28
2024/01/26 09:30:56;;;;;;;5.38;2.22;;;;;;;11.03;40.30;100071.38;4935706;29;20042;-28
2024/01/26 09:33:22;;;;;;;9.35;2.10;;;;;;;11.23;39.67;100074.13;4935529;29;20059;-27
2024/01/26 09:35:48;;;;;;;4.25;2.10;;;;;;;11.47;39.39;100075.44;4935559;29;20028;-27
2024/01/26 09:38:14;;;;;;;9.73;2.42;;;;;;;11.52;38.92;100067.66;4935706;29;20424;-28
2024/01/26 09:40:39;;;;;;;5.30;1.85;;;;;;;11.47;38.76;100056.78;4935550;29;20027;-27
2024/01/26 09:43:06;;;;;;;5.90;2.17;;;;;;;11.51;39.05;100064.16;4935611;29;20028;-29
2024/01/26 09:45:32;;;;;;;4.25;1.73;;;;;;;11.12;38.71;100052.38;4935800;29;20284;-30
2024/01/26 09:47:58;;;;;;;5.07;1.85;;;;;;;11.38;39.09;100057.97;4935186;29;20397;-27
2024/01/26 09:50:26;;;;;;;4.65;2.20;;;;;;;11.55;39.14;100056.56;4935429;29;20023;-27
2024/01/26 09:52:52;;;;;;;4.65;1.95;;;;;;;11.26;39.19;100055.88;4935623;29;20043;-27
2024/01/26 09:55:19;;;;;;;5.03;2.17;;;;;;;11.40;38.93;100039.94;4935275;29;20416;-29
2024/01/26 09:57:45;;;;;;;2.80;1.70;;;;;;;11.38;38.61;100047.31;4935440;29;20030;-27
2024/01/26 10:00:14;;;;;;;6.38;2.08;;;;;;;11.37;38.50;100038.50;4935390;29;20028;-27
2024/01/26 10:02:42;;;;;;;9.03;2.50;;;;;;;11.39;38.83;100032.97;4935346;29;20023;-28
2024/01/26 10:05:08;;;;;;;5.78;2.30;;;;;;;11.60;38.47;100046.13;4935429;29;20126;-28
2024/01/26 10:07:33;;;;;;;5.50;2.10;;;;;;;11.38;38.53;100036.66;4941090;29;20463;-28
2024/01/26 10:09:59;;;;;;;6.30;1.90;;;;;;;11.17;39.80;100016.31;4954431;29;20031;-30
2024/01/26 10:12:24;;;;;;;7.80;2.28;;;;;;;11.44;39.50;100019.84;4954350;29;20038;-27
2024/01/26 10:15:04;;;;;;;4.82;1.85;;;;;;;11.62;38.84;100021.94;4954164;29;20030;-30
2024/01/26 10:17:29;;;;;;;5.82;2.40;;;;;;;11.48;39.82;100021.09;4954262;29;20027;-28
2024/01/26 10:20:07;;;;;;;4.28;2.08;;;;;;;11.50;38.65;100019.06;4953761;29;20038;-29
2024/01/26 10:22:34;;;;;;;8.55;2.38;;;;;;;11.68;38.84;100013.94;4954204;29;20034;-30
2024/01/26 10:25:02;;;;;;;5.00;2.00;;;;;;;11.62;39.17;100019.28;4953936;29;20110;-29
2024/01/26 10:27:27;;;;;;;3.40;1.85;;;;;;;11.70;38.21;100006.56;4954001;29;20515;-29
2024/01/26 10:29:53;;;;;;;8.35;1.98;;;;;;;11.70;38.41;100011.88;4953464;29;20031;-28
2024/01/26 10:32:19;;;;;;;3.38;1.90;;;;;;;12.08;38.30;100003.31;4953554;29;20051;-29
2024/01/26 10:34:47;;;;;;;6.22;2.15;;;;;;;11.49;38.77;99999.56;4953543;29;20488;-29
2024/01/26 10:37:19;;;;;;;3.55;1.92;;;;;;;11.80;38.16;100000.00;4953388;29;20090;-28
2024/01/26 10:39:47;;;;;;;8.98;2.53;;;;;;;11.78;37.75;100002.06;4953583;29;20503;-27
2024/01/26 10:42:13;;;;;;;4.30;2.10;;;;;;;11.93;37.79;100011.50;4953667;29;20111;-28
2024/01/26 10:44:39;;;;;;;5.50;2.20;;;;;;;11.92;38.19;100011.75;4953315;29;20475;-27
2024/01/26 10:47:08;;;;;;;4.07;2.00;;;;;;;11.89;38.09;100020.97;4953295;29;20480;-28
2024/01/26 10:49:36;;;;;;;3.58;1.88;;;;;;;11.78;37.80;100002.88;4953315;29;20502;-27
2024/01/26 10:52:05;;;;;;;4.65;2.17;;;;;;;12.08;37.23;100015.81;4952912;29;20460;-28
2024/01/26 10:54:32;;;;;;;1.98;1.40;;;;;;;12.03;37.51;100018.28;4952923;29;20027;-29
2024/01/26 10:56:58;;;;;;;8.30;2.17;;;;;;;12.15;37.04;100029.16;4952884;29;20119;-29
2024/01/26 10:59:25;;;;;;;5.75;2.00;;;;;;;12.02;38.23;100020.13;4953207;29;20027;-28
2024/01/26 11:01:51;;;;;;;5.72;1.92;;;;;;;12.13;37.89;100026.72;4953234;29;20027;-27
2024/01/26 11:04:17;;;;;;;4.47;2.08;;;;;;;12.05;37.13;100027.75;4953687;29;20578;-28
2024/01/26 11:06:43;;;;;;;5.95;2.10;;;;;;;11.76;38.05;100028.91;4953160;29;20035;-29
2024/01/26 11:09:11;;;;;;;2.80;1.70;;;;;;;11.90;37.97;100024.47;4952369;28;20031;-30
2024/01/26 11:11:38;;;;;;;7.95;2.15;;;;;;;11.96;38.01;100022.81;4952802;29;20544;-28
2024/01/26 11:14:05;;;;;;;4.97;1.70;;;;;;;12.22;37.71;100012.13;4953046;29;20529;-28
2024/01/26 11:16:43;;;;;;;3.38;1.90;;;;;;;12.23;37.21;100007.59;4953198;29;20065;-27
2024/01/26 11:19:20;;;;;;;4.13;2.22;;;;;;;12.45;37.35;100018.84;4952934;29;20404;-30
2024/01/26 11:21:46;;;;;;;8.82;2.47;;;;;;;12.20;37.07;100010.69;4952901;29;20057;-28
2024/01/26 11:24:17;;;;;;;8.52;2.40;;;;;;;12.37;36.66;100009.22;4952787;29;20062;-29
2024/01/26 11:26:55;;;;;;;4.38;1.90;;;;;;;12.56;36.41;100017.38;4953134;29;20156;-29
2024/01/26 11:29:20;;;;;;;4.63;2.10;;;;;;;12.43;36.98;100019.06;4952598;29;20476;-29